sensor_id;sensor_type;location;lat;lon;timestamp;temperature;humidity
75113;DHT22;63692;47.338;8.520;2023-03-31T04:17:56;10.60;99.90
75113;DHT22;63692;47.338;8.520;2023-03-31T04:20:22;10.60;99.90
75113;DHT22;63692;47.338;8.520;2023-03-31T04:22:52;10.60;99.90
75113;DHT22;63692;47.338;8.520;2023-03-31T04:25:18;10.60;99.90
75113;DHT22;63692;47.338;8.520;2023-03-31T04:27:48;10.60;99.90
75113;DHT22;63692;47.338;8.520;2023-03-31T04:30:23;10.60;99.90
75113;DHT22;63692;47.338;8.520;2023-03-31T04:32:51;10.60;99.90
75113;DHT22;63692;47.338;8.520;2023-03-31T04:55:09;10.60;99.90
75113;DHT22;63692;47.338;8.520;2023-03-31T04:57:35;10.50;99.90
75113;DHT22;63692;47.338;8.520;2023-03-31T05:12:19;10.70;99.90
75113;DHT22;63692;47.338;8.520;2023-03-31T05:29:38;10.90;99.90
75113;DHT22;63692;47.338;8.520;2023-03-31T05:32:04;10.90;99.90
75113;DHT22;63692;47.338;8.520;2023-03-31T05:36:57;11.00;99.90
75113;DHT22;63692;47.338;8.520;2023-03-31T05:41:50;11.20;99.90
75113;DHT22;63692;47.338;8.520;2023-03-31T05:44:15;11.20;99.90
75113;DHT22;63692;47.338;8.520;2023-03-31T05:49:08;11.30;99.90
75113;DHT22;63692;47.338;8.520;2023-03-31T05:51:35;11.40;99.90
75113;DHT22;63692;47.338;8.520;2023-03-31T05:54:01;11.40;99.90
75113;DHT22;63692;47.338;8.520;2023-03-31T05:58:54;11.40;99.90
75113;DHT22;63692;47.338;8.520;2023-03-31T06:01:19;11.40;99.90
75113;DHT22;63692;47.338;8.520;2023-03-31T06:03:47;11.50;99.90
75113;DHT22;63692;47.338;8.520;2023-03-31T06:06:13;11.50;99.90
75113;DHT22;63692;47.338;8.520;2023-03-31T06:08:39;11.50;99.90
75113;DHT22;63692;47.338;8.520;2023-03-31T06:11:10;11.50;99.90
75113;DHT22;63692;47.338;8.520;2023-03-31T06:16:03;11.70;98.90
75113;DHT22;63692;47.338;8.520;2023-03-31T06:18:31;11.80;98.60
75113;DHT22;63692;47.338;8.520;2023-03-31T06:20:57;11.90;99.30
75113;DHT22;63692;47.338;8.520;2023-03-31T06:23:24;12.20;98.10
75113;DHT22;63692;47.338;8.520;2023-03-31T06:30:44;12.40;97.80
75113;DHT22;63692;47.338;8.520;2023-03-31T06:35:38;12.40;98.10
75113;DHT22;63692;47.338;8.520;2023-03-31T06:42:59;12.40;98.80
75113;DHT22;63692;47.338;8.520;2023-03-31T06:45:24;12.40;99.90
75113;DHT22;63692;47.338;8.520;2023-03-31T06:47:50;12.40;99.90
75113;DHT22;63692;47.338;8.520;2023-03-31T06:50:16;12.40;99.90
75113;DHT22;63692;47.338;8.520;2023-03-31T06:57:36;12.20;99.90
75113;DHT22;63692;47.338;8.520;2023-03-31T07:00:03;12.20;99.90
75113;DHT22;63692;47.338;8.520;2023-03-31T07:02:29;12.20;99.90
75113;DHT22;63692;47.338;8.520;2023-03-31T07:04:55;12.30;99.90
75113;DHT22;63692;47.338;8.520;2023-03-31T07:09:48;12.50;99.90
75113;DHT22;63692;47.338;8.520;2023-03-31T07:12:13;12.60;99.90
75113;DHT22;63692;47.338;8.520;2023-03-31T07:14:39;12.60;99.90
75113;DHT22;63692;47.338;8.520;2023-03-31T07:17:05;12.60;99.90
75113;DHT22;63692;47.338;8.520;2023-03-31T07:19:31;12.50;99.90
75113;DHT22;63692;47.338;8.520;2023-03-31T07:21:56;12.40;99.90
75113;DHT22;63692;47.338;8.520;2023-03-31T07:24:22;12.30;99.90
75113;DHT22;63692;47.338;8.520;2023-03-31T07:26:47;12.30;99.90
75113;DHT22;63692;47.338;8.520;2023-03-31T07:29:13;12.40;99.90
75113;DHT22;63692;47.338;8.520;2023-03-31T07:31:39;12.40;99.90
75113;DHT22;63692;47.338;8.520;2023-03-31T07:34:04;12.40;99.90
75113;DHT22;63692;47.338;8.520;2023-03-31T07:36:30;12.50;99.90
75113;DHT22;63692;47.338;8.520;2023-03-31T07:38:56;12.60;99.90
75113;DHT22;63692;47.338;8.520;2023-03-31T07:41:22;12.70;99.90
75113;DHT22;63692;47.338;8.520;2023-03-31T07:43:49;12.70;99.90
75113;DHT22;63692;47.338;8.520;2023-03-31T07:46:25;12.80;99.90
75113;DHT22;63692;47.338;8.520;2023-03-31T07:48:51;12.80;99.90
75113;DHT22;63692;47.338;8.520;2023-03-31T07:51:20;12.90;99.90
75113;DHT22;63692;47.338;8.520;2023-03-31T07:53:46;13.00;99.90
75113;DHT22;63692;47.338;8.520;2023-03-31T07:56:21;13.00;99.90
75113;DHT22;63692;47.338;8.520;2023-03-31T07:58:47;13.00;99.90
75113;DHT22;63692;47.338;8.520;2023-03-31T08:01:17;13.00;99.90
75113;DHT22;63692;47.338;8.520;2023-03-31T08:03:44;13.00;99.90
75113;DHT22;63692;47.338;8.520;2023-03-31T08:06:11;13.10;99.90
75113;DHT22;63692;47.338;8.520;2023-03-31T08:08:37;13.10;99.90
75113;DHT22;63692;47.338;8.520;2023-03-31T08:11:03;13.10;99.90
75113;DHT22;63692;47.338;8.520;2023-03-31T08:13:29;13.20;99.90
75113;DHT22;63692;47.338;8.520;2023-03-31T08:15:55;13.20;99.90
75113;DHT22;63692;47.338;8.520;2023-03-31T08:18:20;13.20;99.90
75113;DHT22;63692;47.338;8.520;2023-03-31T08:20:46;13.20;99.90
75113;DHT22;63692;47.338;8.520;2023-03-31T08:23:14;13.30;99.90
75113;DHT22;63692;47.338;8.520;2023-03-31T08:25:40;13.30;99.90
75113;DHT22;63692;47.338;8.520;2023-03-31T08:28:06;13.40;99.00
75113;DHT22;63692;47.338;8.520;2023-03-31T08:30:37;13.50;99.40
75113;DHT22;63692;47.338;8.520;2023-03-31T08:33:03;13.50;99.50
75113;DHT22;63692;47.338;8.520;2023-03-31T08:35:29;13.50;98.70
75113;DHT22;63692;47.338;8.520;2023-03-31T08:37:54;13.50;99.10
75113;DHT22;63692;47.338;8.520;2023-03-31T08:40:23;13.50;98.00
75113;DHT22;63692;47.338;8.520;2023-03-31T08:42:53;13.50;98.50
75113;DHT22;63692;47.338;8.520;2023-03-31T08:45:24;13.60;98.60
75113;DHT22;63692;47.338;8.520;2023-03-31T08:48:22;13.70;98.00
75113;DHT22;63692;47.338;8.520;2023-03-31T08:50:53;13.80;98.40
75113;DHT22;63692;47.338;8.520;2023-03-31T08:53:40;13.90;97.60
75113;DHT22;63692;47.338;8.520;2023-03-31T08:56:14;14.10;97.90
75113;DHT22;63692;47.338;8.520;2023-03-31T08:58:43;14.10;97.70
75113;DHT22;63692;47.338;8.520;2023-03-31T09:04:24;14.20;97.20
75113;DHT22;63692;47.338;8.520;2023-03-31T09:15:58;14.40;96.70
75113;DHT22;63692;47.338;8.520;2023-03-31T09:18:32;14.40;96.60
75113;DHT22;63692;47.338;8.520;2023-03-31T09:24:22;14.30;96.20
75113;DHT22;63692;47.338;8.520;2023-03-31T09:26:52;14.40;85.30
75113;DHT22;63692;47.338;8.520;2023-03-31T09:29:29;14.40;76.10
75113;DHT22;63692;47.338;8.520;2023-03-31T09:32:00;14.40;68.50
75113;DHT22;63692;47.338;8.520;2023-03-31T09:34:33;14.30;70.60
75113;DHT22;63692;47.338;8.520;2023-03-31T09:36:59;14.20;71.60
75113;DHT22;63692;47.338;8.520;2023-03-31T09:39:24;14.20;73.10
75113;DHT22;63692;47.338;8.520;2023-03-31T09:41:51;14.30;74.40
75113;DHT22;63692;47.338;8.520;2023-03-31T09:46:47;14.40;75.50
75113;DHT22;63692;47.338;8.520;2023-03-31T10:06:56;14.50;79.10
75113;DHT22;63692;47.338;8.520;2023-03-31T10:37:27;15.20;78.00
75113;DHT22;63692;47.338;8.520;2023-03-31T10:40:00;15.30;78.60
75113;DHT22;63692;47.338;8.520;2023-03-31T10:45:23;15.50;79.70
75113;DHT22;63692;47.338;8.520;2023-03-31T10:47:53;15.50;79.80
75113;DHT22;63692;47.338;8.520;2023-03-31T10:50:19;15.60;83.10
75113;DHT22;63692;47.338;8.520;2023-03-31T10:52:50;15.60;81.40
75113;DHT22;63692;47.338;8.520;2023-03-31T10:55:25;15.60;80.90
75113;DHT22;63692;47.338;8.520;2023-03-31T11:01:00;15.50;84.60
75113;DHT22;63692;47.338;8.520;2023-03-31T11:03:51;15.30;87.70
75113;DHT22;63692;47.338;8.520;2023-03-31T11:09:15;15.10;91.10
75113;DHT22;63692;47.338;8.520;2023-03-31T11:32:44;14.80;89.30
75113;DHT22;63692;47.338;8.520;2023-03-31T11:35:17;14.70;90.20
75113;DHT22;63692;47.338;8.520;2023-03-31T11:43:13;14.40;90.20
75113;DHT22;63692;47.338;8.520;2023-03-31T11:46:03;14.40;87.00
75113;DHT22;63692;47.338;8.520;2023-03-31T11:48:40;14.40;86.40
75113;DHT22;63692;47.338;8.520;2023-03-31T11:51:19;14.30;90.00
75113;DHT22;63692;47.338;8.520;2023-03-31T11:53:46;14.30;89.50
75113;DHT22;63692;47.338;8.520;2023-03-31T11:56:14;14.20;86.10
75113;DHT22;63692;47.338;8.520;2023-03-31T11:58:48;14.10;90.40
75113;DHT22;63692;47.338;8.520;2023-03-31T12:06:29;13.80;88.80
75113;DHT22;63692;47.338;8.520;2023-03-31T12:11:56;13.30;87.40
75113;DHT22;63692;47.338;8.520;2023-03-31T12:14:32;13.10;91.70
75113;DHT22;63692;47.338;8.520;2023-03-31T12:17:04;12.80;94.60
75113;DHT22;63692;47.338;8.520;2023-03-31T12:19:58;12.70;93.30
75113;DHT22;63692;47.338;8.520;2023-03-31T12:24:53;12.40;96.10
75113;DHT22;63692;47.338;8.520;2023-03-31T12:27:23;12.30;99.30
75113;DHT22;63692;47.338;8.520;2023-03-31T12:29:57;12.10;98.30
75113;DHT22;63692;47.338;8.520;2023-03-31T12:32:29;12.00;99.90
75113;DHT22;63692;47.338;8.520;2023-03-31T12:35:00;11.90;99.90
75113;DHT22;63692;47.338;8.520;2023-03-31T12:40:42;12.00;99.90
75113;DHT22;63692;47.338;8.520;2023-03-31T12:45:43;11.90;99.90
75113;DHT22;63692;47.338;8.520;2023-03-31T12:55:59;12.60;99.90
75113;DHT22;63692;47.338;8.520;2023-03-31T13:11:13;12.80;99.90
75113;DHT22;63692;47.338;8.520;2023-03-31T13:18:34;12.70;99.90
75113;DHT22;63692;47.338;8.520;2023-03-31T13:23:34;12.60;99.90
75113;DHT22;63692;47.338;8.520;2023-03-31T13:26:01;12.50;99.90
75113;DHT22;63692;47.338;8.520;2023-03-31T13:28:33;12.30;99.80
75113;DHT22;63692;47.338;8.520;2023-03-31T13:31:07;12.30;99.90
75113;DHT22;63692;47.338;8.520;2023-03-31T13:48:47;12.40;97.00
75113;DHT22;63692;47.338;8.520;2023-03-31T14:02:26;13.70;87.10
75113;DHT22;63692;47.338;8.520;2023-03-31T14:10:34;15.30;83.40
75113;DHT22;63692;47.338;8.520;2023-03-31T14:13:23;15.70;81.20
75113;DHT22;63692;47.338;8.520;2023-03-31T14:15:54;16.10;78.30
75113;DHT22;63692;47.338;8.520;2023-03-31T14:33:42;18.00;66.90
75113;DHT22;63692;47.338;8.520;2023-03-31T14:36:37;18.50;66.80
75113;DHT22;63692;47.338;8.520;2023-03-31T14:59:02;16.10;65.80
75113;DHT22;63692;47.338;8.520;2023-03-31T15:04:07;14.70;71.30
75113;DHT22;63692;47.338;8.520;2023-03-31T15:39:34;13.40;76.30
75113;DHT22;63692;47.338;8.520;2023-03-31T15:42:02;13.40;78.90
75113;DHT22;63692;47.338;8.520;2023-03-31T15:54:39;12.30;96.10
75113;DHT22;63692;47.338;8.520;2023-03-31T16:02:19;11.90;96.20
75113;DHT22;63692;47.338;8.520;2023-03-31T16:07:24;11.70;97.00
75113;DHT22;63692;47.338;8.520;2023-03-31T16:13:09;11.40;96.80
75113;DHT22;63692;47.338;8.520;2023-03-31T16:25:30;13.70;90.80
75113;DHT22;63692;47.338;8.520;2023-03-31T16:27:57;13.10;89.80
75113;DHT22;63692;47.338;8.520;2023-03-31T16:30:41;12.40;90.50
75113;DHT22;63692;47.338;8.520;2023-03-31T16:33:16;12.00;91.60
75113;DHT22;63692;47.338;8.520;2023-03-31T16:35:44;11.70;91.60
75113;DHT22;63692;47.338;8.520;2023-03-31T16:38:13;11.70;91.90
75113;DHT22;63692;47.338;8.520;2023-03-31T16:40:42;11.50;92.80
75113;DHT22;63692;47.338;8.520;2023-03-31T16:43:22;11.50;94.00
75113;DHT22;63692;47.338;8.520;2023-03-31T16:45:50;11.50;93.70
75113;DHT22;63692;47.338;8.520;2023-03-31T16:48:17;11.60;92.90
75113;DHT22;63692;47.338;8.520;2023-03-31T16:50:45;11.30;92.40
75113;DHT22;63692;47.338;8.520;2023-03-31T16:53:13;11.30;93.40
75113;DHT22;63692;47.338;8.520;2023-03-31T16:55:40;11.40;93.30
75113;DHT22;63692;47.338;8.520;2023-03-31T16:58:05;11.30;92.90
75113;DHT22;63692;47.338;8.520;2023-03-31T17:00:33;11.40;92.90
75113;DHT22;63692;47.338;8.520;2023-03-31T17:12:57;11.10;93.80
75113;DHT22;63692;47.338;8.520;2023-03-31T17:15:23;11.10;94.90
75113;DHT22;63692;47.338;8.520;2023-03-31T17:17:49;11.20;94.60
75113;DHT22;63692;47.338;8.520;2023-03-31T17:20:24;11.20;93.80
75113;DHT22;63692;47.338;8.520;2023-03-31T17:25:17;11.10;93.00
75113;DHT22;63692;47.338;8.520;2023-03-31T17:27:43;11.00;92.20
75113;DHT22;63692;47.338;8.520;2023-03-31T17:30:10;10.90;93.20
